Time;durP1;ratioP1;P1;durP2;ratioP2;P2;SDS_P1;SDS_P2;PMS_P1;PMS_P2;Temp;Humidity;BMP_temperature;BMP_pressure;BME280_temperature;BME280_humidity;BME280_pressure;Samples;Min_cycle;Max_cycle;Signal;HPM_P1;HPM_P2
2020/12/27 00:00:42;;;;;;;16.90;8.98;;;1.70;72.80;;;;;;5057034;28;20127;-74
2020/12/27 00:03:08;;;;;;;18.17;9.38;;;1.70;72.90;;;;;;5057039;28;20028;-73
2020/12/27 00:05:34;;;;;;;20.40;10.43;;;1.60;72.90;;;;;;5056603;28;20369;-73
2020/12/27 00:08:00;;;;;;;18.48;9.38;;;1.70;73.00;;;;;;5056264;28;20021;-73
2020/12/27 00:10:26;;;;;;;19.05;9.75;;;1.70;73.10;;;;;;5056907;28;20425;-73
2020/12/27 00:12:51;;;;;;;18.40;9.40;;;1.60;73.10;;;;;;5057336;28;20033;-73
2020/12/27 00:15:17;;;;;;;20.48;10.18;;;1.70;73.20;;;;;;5056912;28;20483;-74
2020/12/27 00:17:43;;;;;;;20.65;9.27;;;1.60;73.20;;;;;;5057245;28;20021;-73
2020/12/27 00:20:10;;;;;;;21.48;10.30;;;1.60;73.10;;;;;;5056724;28;20021;-74
2020/12/27 00:22:35;;;;;;;16.05;9.68;;;1.70;73.20;;;;;;5056552;28;20364;-73
2020/12/27 00:25:01;;;;;;;16.98;9.07;;;1.60;73.20;;;;;;5056252;28;20092;-74
2020/12/27 00:27:27;;;;;;;18.33;9.02;;;1.60;73.10;;;;;;5057275;28;20028;-73
2020/12/27 00:29:53;;;;;;;16.42;8.60;;;1.60;73.30;;;;;;5055434;28;20043;-73
2020/12/27 00:32:18;;;;;;;15.90;9.27;;;1.60;73.30;;;;;;5055158;28;20082;-73
2020/12/27 00:34:44;;;;;;;14.73;8.93;;;1.50;73.20;;;;;;5056564;28;20059;-74
2020/12/27 00:37:10;;;;;;;17.05;8.77;;;1.50;73.40;;;;;;5056242;28;20108;-74
2020/12/27 00:39:35;;;;;;;17.67;9.38;;;1.50;73.40;;;;;;5056695;28;20040;-74
2020/12/27 00:42:04;;;;;;;20.60;10.30;;;1.50;73.40;;;;;;5056140;28;20498;-74
2020/12/27 00:44:29;;;;;;;20.33;10.38;;;1.50;73.40;;;;;;5056323;28;20051;-74
2020/12/27 00:46:55;;;;;;;19.63;10.90;;;1.50;73.50;;;;;;5055837;28;20073;-74
2020/12/27 00:49:21;;;;;;;19.85;10.38;;;1.40;73.50;;;;;;5056224;28;20021;-73
2020/12/27 00:51:47;;;;;;;22.13;11.45;;;1.40;73.70;;;;;;5054637;28;20369;-73
2020/12/27 00:54:14;;;;;;;21.27;10.85;;;1.40;73.70;;;;;;5054536;28;20029;-72
2020/12/27 00:56:39;;;;;;;27.65;12.27;;;1.40;73.70;;;;;;5055553;28;20025;-73
2020/12/27 00:59:05;;;;;;;27.83;12.38;;;1.40;73.70;;;;;;5056078;28;20361;-73
2020/12/27 01:01:31;;;;;;;48.38;18.45;;;1.40;73.70;;;;;;5055749;28;20120;-73
2020/12/27 01:03:57;;;;;;;51.45;20.65;;;1.30;73.70;;;;;;5055477;28;20064;-74
2020/12/27 01:06:27;;;;;;;57.28;20.63;;;1.30;73.80;;;;;;5055418;28;20021;-74
2020/12/27 01:08:54;;;;;;;59.53;20.88;;;1.30;73.80;;;;;;5055318;28;20469;-75
2020/12/27 01:11:20;;;;;;;47.92;18.23;;;1.30;73.90;;;;;;5055443;28;20043;-72
2020/12/27 01:13:46;;;;;;;42.65;16.65;;;1.30;73.90;;;;;;5054234;28;20029;-73
2020/12/27 01:16:19;;;;;;;41.25;15.70;;;1.30;74.00;;;;;;5055770;28;20017;-73
2020/12/27 01:18:46;;;;;;;35.22;15.70;;;1.20;73.90;;;;;;5054705;28;20131;-73
2020/12/27 01:21:20;;;;;;;29.50;13.52;;;1.20;74.00;;;;;;5054112;28;20052;-74
2020/12/27 01:23:46;;;;;;;19.02;11.00;;;1.20;74.10;;;;;;5054083;28;20071;-74
2020/12/27 01:26:11;;;;;;;19.25;9.75;;;1.20;74.10;;;;;;5054131;28;20025;-74
2020/12/27 01:28:39;;;;;;;21.88;10.98;;;1.20;74.10;;;;;;5055613;28;20025;-74
2020/12/27 01:31:05;;;;;;;19.65;9.88;;;1.10;74.10;;;;;;5059830;28;20021;-74
2020/12/27 01:33:30;;;;;;;22.00;10.85;;;1.20;74.30;;;;;;5055559;28;20059;-74
2020/12/27 01:35:56;;;;;;;19.20;9.68;;;1.20;74.30;;;;;;5055127;28;20055;-73
2020/12/27 01:38:22;;;;;;;17.40;9.68;;;1.10;74.20;;;;;;5054861;28;20028;-74
2020/12/27 01:40:47;;;;;;;15.95;8.90;;;1.10;74.20;;;;;;5055067;28;20424;-73
2020/12/27 01:43:13;;;;;;;19.90;9.95;;;1.10;74.20;;;;;;5055258;28;20025;-74
2020/12/27 01:45:39;;;;;;;18.10;9.60;;;1.10;74.20;;;;;;5054707;28;20031;-73
2020/12/27 01:48:11;;;;;;;19.52;10.07;;;1.10;74.20;;;;;;5054150;28;20025;-73
2020/12/27 01:50:37;;;;;;;16.75;8.73;;;1.10;74.30;;;;;;5054910;28;20516;-74
2020/12/27 01:53:04;;;;;;;15.10;8.70;;;1.10;74.20;;;;;;5054795;28;20055;-74
2020/12/27 01:55:31;;;;;;;17.60;9.75;;;1.10;74.30;;;;;;5054783;28;20021;-73
2020/12/27 01:58:03;;;;;;;16.95;8.57;;;1.10;74.20;;;;;;5054493;28;20479;-74
2020/12/27 02:00:29;;;;;;;15.38;8.63;;;1.10;74.10;;;;;;5054649;28;20028;-73
2020/12/27 02:02:54;;;;;;;15.63;8.10;;;1.10;74.10;;;;;;5054918;28;20029;-73
2020/12/27 02:05:20;;;;;;;16.33;8.68;;;1.10;74.10;;;;;;5054616;28;20105;-73
2020/12/27 02:07:47;;;;;;;15.13;8.52;;;1.10;74.10;;;;;;5054588;28;20372;-74
2020/12/27 02:10:13;;;;;;;14.63;8.50;;;1.10;74.10;;;;;;5054388;28;20503;-73
2020/12/27 02:12:39;;;;;;;16.75;8.88;;;1.10;74.10;;;;;;5054383;28;20107;-73
2020/12/27 02:15:07;;;;;;;16.25;8.95;;;1.10;74.10;;;;;;5053100;28;20063;-74
2020/12/27 02:17:32;;;;;;;18.17;9.15;;;1.10;74.10;;;;;;5054384;28;20057;-74
2020/12/27 02:19:58;;;;;;;19.50;9.63;;;1.20;74.10;;;;;;5054039;28;20364;-73
2020/12/27 02:22:24;;;;;;;15.32;8.05;;;1.10;73.90;;;;;;5052552;28;20080;-74
2020/12/27 02:24:49;;;;;;;21.65;10.30;;;1.10;73.90;;;;;;5054241;28;20021;-73
2020/12/27 02:27:15;;;;;;;17.55;8.93;;;1.10;73.90;;;;;;5054404;28;20053;-73
2020/12/27 02:29:41;;;;;;;13.43;7.75;;;1.10;73.90;;;;;;5054153;28;20044;-74
2020/12/27 02:32:06;;;;;;;13.95;7.82;;;1.10;73.90;;;;;;5054670;28;20029;-74
2020/12/27 02:34:32;;;;;;;13.95;8.07;;;1.10;73.90;;;;;;5054005;28;20064;-73
2020/12/27 02:36:58;;;;;;;13.15;7.68;;;1.10;73.80;;;;;;5054307;28;20020;-74
2020/12/27 02:39:24;;;;;;;16.25;8.27;;;1.10;74.40;;;;;;5053515;28;20017;-73
2020/12/27 02:41:53;;;;;;;16.80;8.45;;;1.10;73.80;;;;;;5053947;28;20017;-74
2020/12/27 02:44:19;;;;;;;16.67;7.55;;;1.10;73.70;;;;;;5053924;28;20518;-73
2020/12/27 02:46:45;;;;;;;13.90;7.40;;;1.10;73.80;;;;;;5053921;28;20410;-73
2020/12/27 02:49:11;;;;;;;13.25;7.22;;;1.10;73.70;;;;;;5053882;28;20425;-73
2020/12/27 02:51:37;;;;;;;13.75;8.25;;;1.10;73.70;;;;;;5053828;28;20028;-73
2020/12/27 02:54:03;;;;;;;14.65;8.48;;;1.10;73.80;;;;;;5054209;28;20489;-73
2020/12/27 02:56:35;;;;;;;18.20;9.30;;;1.10;73.70;;;;;;5053392;28;20453;-72
2020/12/27 02:59:04;;;;;;;17.95;9.65;;;1.10;73.60;;;;;;5053448;28;20025;-73
2020/12/27 03:01:30;;;;;;;18.20;9.60;;;1.10;73.60;;;;;;5053718;28;20012;-74
2020/12/27 03:03:56;;;;;;;21.85;9.80;;;1.10;73.50;;;;;;5053442;28;20472;-73
2020/12/27 03:06:22;;;;;;;15.52;7.63;;;1.10;73.50;;;;;;5053324;28;20146;-74
2020/12/27 03:08:54;;;;;;;15.50;8.18;;;1.10;73.40;;;;;;5053283;28;20028;-73
2020/12/27 03:11:24;;;;;;;16.88;7.97;;;1.10;73.40;;;;;;5053637;28;20048;-73
2020/12/27 03:13:50;;;;;;;14.82;7.80;;;1.10;73.40;;;;;;5053449;28;20029;-74
2020/12/27 03:16:16;;;;;;;14.90;7.00;;;1.10;73.40;;;;;;5053487;28;20021;-74
2020/12/27 03:18:42;;;;;;;13.85;7.20;;;1.00;73.30;;;;;;5053471;28;20115;-75
2020/12/27 03:21:08;;;;;;;14.38;8.27;;;1.00;73.30;;;;;;5052247;28;20108;-74
2020/12/27 03:23:33;;;;;;;13.45;7.35;;;1.00;73.30;;;;;;5053502;28;20029;-73
2020/12/27 03:25:59;;;;;;;18.50;7.40;;;1.00;73.30;;;;;;5053732;28;20361;-74
2020/12/27 03:28:25;;;;;;;14.40;7.43;;;1.00;73.30;;;;;;5053240;28;20104;-72
2020/12/27 03:30:51;;;;;;;10.88;6.68;;;1.00;73.30;;;;;;5053447;28;20430;-74
2020/12/27 03:33:17;;;;;;;14.00;6.82;;;1.00;73.20;;;;;;5053086;28;20095;-73
2020/12/27 03:35:42;;;;;;;12.20;7.07;;;1.00;73.20;;;;;;5057183;28;20441;-73
2020/12/27 03:38:09;;;;;;;13.30;7.07;;;1.00;73.20;;;;;;5056216;28;20021;-75
2020/12/27 03:40:34;;;;;;;14.57;7.82;;;1.00;73.20;;;;;;5057435;28;20468;-75
2020/12/27 03:43:00;;;;;;;13.98;7.25;;;1.00;73.20;;;;;;5057563;28;20029;-75
2020/12/27 03:45:26;;;;;;;11.32;6.70;;;1.00;73.20;;;;;;5057238;28;20107;-73
2020/12/27 03:47:54;;;;;;;11.88;6.18;;;1.00;73.20;;;;;;5065263;28;20024;-76
2020/12/27 03:50:22;;;;;;;13.50;7.18;;;1.00;73.10;;;;;;5079235;28;20084;-75
2020/12/27 03:52:48;;;;;;;12.10;7.00;;;1.00;73.10;;;;;;5080175;28;20059;-76
2020/12/27 03:55:13;;;;;;;12.77;6.43;;;1.00;73.10;;;;;;5081209;28;20033;-74
2020/12/27 03:57:39;;;;;;;12.60;6.35;;;1.00;73.10;;;;;;5081360;28;20065;-75
2020/12/27 04:00:05;;;;;;;11.30;6.40;;;1.00;73.10;;;;;;5068742;28;20036;-74
2020/12/27 04:02:30;;;;;;;11.65;6.13;;;1.00;73.00;;;;;;5057269;28;20103;-74
2020/12/27 04:04:56;;;;;;;12.23;5.80;;;1.00;73.00;;;;;;5057330;28;20027;-73
2020/12/27 04:07:23;;;;;;;9.38;5.75;;;1.00;72.90;;;;;;5057852;28;20108;-73
2020/12/27 04:09:49;;;;;;;12.35;6.25;;;1.00;72.80;;;;;;5058562;28;20028;-73
2020/12/27 04:12:14;;;;;;;13.85;7.35;;;1.00;72.80;;;;;;5057696;28;20356;-74
2020/12/27 04:14:40;;;;;;;14.75;7.40;;;1.00;72.80;;;;;;5056966;28;20033;-73
2020/12/27 04:17:07;;;;;;;15.43;7.93;;;1.00;72.70;;;;;;5056729;28;20021;-74
2020/12/27 04:19:32;;;;;;;15.93;8.60;;;1.00;72.80;;;;;;5056345;28;20024;-72
2020/12/27 04:21:58;;;;;;;14.45;8.10;;;1.00;72.70;;;;;;5055307;28;20363;-73
2020/12/27 04:24:24;;;;;;;16.75;8.98;;;1.00;72.60;;;;;;5056602;28;20033;-74
2020/12/27 04:26:50;;;;;;;22.30;11.48;;;1.00;72.50;;;;;;5056725;28;20052;-73
2020/12/27 04:29:15;;;;;;;15.63;8.98;;;1.00;72.50;;;;;;5055645;28;20021;-73
2020/12/27 04:31:41;;;;;;;18.52;9.40;;;1.00;72.50;;;;;;5056475;28;20445;-74
2020/12/27 04:34:07;;;;;;;16.98;8.90;;;1.00;72.40;;;;;;5056297;28;20029;-74
2020/12/27 04:36:32;;;;;;;15.93;8.52;;;1.00;72.40;;;;;;5056621;28;20021;-74
2020/12/27 04:38:58;;;;;;;16.70;8.38;;;1.00;72.40;;;;;;5056582;28;20013;-73
2020/12/27 04:41:24;;;;;;;14.02;6.70;;;1.00;72.40;;;;;;5056279;28;20514;-74
2020/12/27 04:43:50;;;;;;;11.98;6.97;;;0.90;72.40;;;;;;5054591;28;20082;-73
2020/12/27 04:46:17;;;;;;;11.23;7.03;;;1.00;72.50;;;;;;5055772;28;20029;-75
2020/12/27 04:48:44;;;;;;;13.57;7.15;;;1.00;72.50;;;;;;5054895;28;20075;-74
2020/12/27 04:51:12;;;;;;;12.70;7.22;;;1.00;72.40;;;;;;5055311;28;20059;-73
2020/12/27 04:53:38;;;;;;;13.57;7.43;;;0.90;72.20;;;;;;5056120;28;20041;-75
2020/12/27 04:56:06;;;;;;;14.48;7.40;;;1.00;72.30;;;;;;5055507;28;20103;-73
2020/12/27 04:58:32;;;;;;;14.05;8.80;;;1.00;72.30;;;;;;5055598;28;20024;-73
2020/12/27 05:00:59;;;;;;;14.18;8.60;;;0.90;72.20;;;;;;5055520;28;20132;-74
2020/12/27 05:03:25;;;;;;;23.35;10.13;;;0.90;72.20;;;;;;5056398;28;20048;-74
2020/12/27 05:05:52;;;;;;;14.30;8.50;;;1.00;72.30;;;;;;5055820;28;20025;-73
2020/12/27 05:08:19;;;;;;;12.38;7.07;;;1.00;72.30;;;;;;5055943;28;20051;-74
2020/12/27 05:10:45;;;;;;;10.95;6.57;;;1.00;72.10;;;;;;5054101;28;20366;-73
2020/12/27 05:13:12;;;;;;;11.48;7.05;;;1.00;72.10;;;;;;5054645;28;20495;-74
2020/12/27 05:15:42;;;;;;;13.25;6.80;;;0.90;72.00;;;;;;5054371;28;20358;-73
2020/12/27 05:18:09;;;;;;;12.13;6.97;;;0.90;72.00;;;;;;5055797;28;20342;-73
2020/12/27 05:20:36;;;;;;;12.10;6.88;;;0.90;72.10;;;;;;5055780;28;20067;-74
2020/12/27 05:23:04;;;;;;;15.57;7.63;;;0.90;72.10;;;;;;5055459;28;20353;-74
2020/12/27 05:25:34;;;;;;;13.18;7.50;;;0.90;72.10;;;;;;5055351;28;20021;-73
2020/12/27 05:28:05;;;;;;;15.57;8.15;;;0.90;72.20;;;;;;5055454;28;20021;-74
2020/12/27 05:30:30;;;;;;;15.10;8.32;;;0.90;72.20;;;;;;5055084;28;20016;-73
2020/12/27 05:32:56;;;;;;;16.25;9.57;;;0.90;72.20;;;;;;5055261;28;20116;-74
2020/12/27 05:35:23;;;;;;;15.80;9.25;;;0.90;72.30;;;;;;5053986;28;20112;-75
2020/12/27 05:37:49;;;;;;;21.23;11.15;;;0.90;72.10;;;;;;5055119;28;20025;-74
2020/12/27 05:40:16;;;;;;;17.88;10.43;;;0.90;72.10;;;;;;5055071;28;20028;-74
2020/12/27 05:42:43;;;;;;;21.00;11.55;;;0.90;72.10;;;;;;5055567;28;20044;-74
2020/12/27 05:45:17;;;;;;;19.98;11.23;;;0.90;72.10;;;;;;5053755;28;20028;-75
2020/12/27 05:47:45;;;;;;;19.80;11.68;;;0.90;72.10;;;;;;5055250;28;20025;-73
2020/12/27 05:50:15;;;;;;;16.55;9.27;;;0.90;72.00;;;;;;5054931;28;20458;-73
2020/12/27 05:52:46;;;;;;;15.35;8.95;;;0.90;72.10;;;;;;5055125;28;20028;-73
2020/12/27 05:55:22;;;;;;;18.02;9.80;;;0.90;72.10;;;;;;5054916;28;20056;-73
2020/12/27 05:57:55;;;;;;;19.17;9.80;;;1.00;72.20;;;;;;5053751;28;20029;-74
2020/12/27 06:00:22;;;;;;;19.88;10.35;;;0.90;72.00;;;;;;5055212;28;20380;-74
2020/12/27 06:03:00;;;;;;;15.80;9.85;;;1.00;72.80;;;;;;5053480;28;20024;-73
2020/12/27 06:05:44;;;;;;;18.23;9.80;;;1.00;72.20;;;;;;5054346;28;20094;-73
2020/12/27 06:08:22;;;;;;;15.00;8.95;;;1.00;72.20;;;;;;5054828;28;20028;-75
2020/12/27 06:10:59;;;;;;;17.45;9.68;;;1.00;72.20;;;;;;5054419;28;20032;-74
2020/12/27 06:14:28;;;;;;;20.42;8.55;;;1.00;72.20;;;;;;5054677;28;20115;-74
2020/12/27 06:17:13;;;;;;;13.40;8.35;;;1.10;72.30;;;;;;5048860;28;20056;-74
2020/12/27 06:19:39;;;;;;;17.88;8.52;;;1.10;72.20;;;;;;5053679;28;20468;-74
2020/12/27 06:22:09;;;;;;;14.38;7.97;;;1.20;72.30;;;;;;5053990;28;20531;-74
2020/12/27 06:24:37;;;;;;;19.27;9.23;;;1.20;72.10;;;;;;5054283;28;20021;-75
2020/12/27 06:27:04;;;;;;;18.30;9.10;;;1.20;72.10;;;;;;5054001;28;20021;-75
2020/12/27 06:30:06;;;;;;;35.25;14.50;;;1.20;72.20;;;;;;5052848;28;20021;-73
2020/12/27 06:32:37;;;;;;;51.47;20.45;;;1.30;72.30;;;;;;5021310;28;20037;-74
2020/12/27 06:35:08;;;;;;;35.30;16.55;;;1.40;72.30;;;;;;5053041;28;20453;-74
2020/12/27 06:37:45;;;;;;;32.85;15.40;;;1.50;72.20;;;;;;5054238;28;20050;-74
2020/12/27 06:40:12;;;;;;;37.17;18.08;;;1.50;71.90;;;;;;5053960;28;20028;-74
2020/12/27 06:42:38;;;;;;;37.35;18.67;;;1.60;71.80;;;;;;5054132;28;20040;-74
2020/12/27 06:45:24;;;;;;;42.22;18.00;;;1.60;71.60;;;;;;5053156;28;20434;-74
2020/12/27 06:47:56;;;;;;;47.08;20.55;;;1.60;71.50;;;;;;5053150;28;20463;-74
2020/12/27 06:50:26;;;;;;;37.13;16.98;;;1.70;71.60;;;;;;5053780;28;20025;-75
2020/12/27 06:52:52;;;;;;;38.95;17.17;;;1.70;71.60;;;;;;5053854;28;20119;-76
2020/12/27 06:55:38;;;;;;;30.20;14.13;;;1.80;71.70;;;;;;5053811;28;20071;-74
2020/12/27 06:58:20;;;;;;;33.38;15.63;;;1.90;71.60;;;;;;5052287;28;20025;-76
2020/12/27 07:01:09;;;;;;;25.83;12.85;;;2.00;71.40;;;;;;5054197;28;20453;-74
2020/12/27 07:03:38;;;;;;;20.35;10.20;;;2.10;71.20;;;;;;5053793;28;20410;-74
2020/12/27 07:06:24;;;;;;;16.02;9.43;;;2.20;71.10;;;;;;5053397;28;20023;-74
2020/12/27 07:08:55;;;;;;;17.00;9.93;;;2.30;71.00;;;;;;5053539;28;20029;-74
2020/12/27 07:11:29;;;;;;;17.55;9.82;;;2.50;71.00;;;;;;5053308;28;20053;-74
2020/12/27 07:13:57;;;;;;;21.80;10.82;;;2.50;70.70;;;;;;5054505;28;20036;-75
2020/12/27 07:16:36;;;;;;;22.60;12.02;;;2.70;70.70;;;;;;5053763;28;20107;-74
2020/12/27 07:19:04;;;;;;;20.05;10.10;;;2.80;70.50;;;;;;5036096;28;20013;-75
2020/12/27 07:21:30;;;;;;;20.65;9.82;;;2.90;70.30;;;;;;5053114;28;20025;-74
2020/12/27 07:24:05;;;;;;;22.70;10.52;;;3.00;70.00;;;;;;5053376;28;20040;-73
2020/12/27 07:26:32;;;;;;;;;;;3.10;70.00;;;;;;5053714;28;20048;-75
2020/12/27 07:29:05;;;;;;;18.77;9.32;;;3.20;70.20;;;;;;5052148;28;19913;-74
2020/12/27 07:31:35;;;;;;;20.23;10.55;;;3.40;70.20;;;;;;5052161;28;20020;-74
2020/12/27 07:34:02;;;;;;;30.67;15.70;;;3.50;69.90;;;;;;5053031;28;20057;-74
2020/12/27 07:36:28;;;;;;;26.75;13.90;;;3.70;70.00;;;;;;5036154;28;20025;-75
2020/12/27 07:39:01;;;;;;;22.85;11.93;;;4.00;70.20;;;;;;5053863;28;20455;-75
2020/12/27 07:41:32;;;;;;;27.48;14.27;;;4.20;69.80;;;;;;5053280;28;20025;-75
2020/12/27 07:43:58;;;;;;;22.27;10.82;;;4.60;69.50;;;;;;5053474;28;20032;-75
2020/12/27 07:46:26;;;;;;;25.92;14.70;;;5.10;69.30;;;;;;5052894;28;20021;-73
2020/12/27 07:48:52;;;;;;;30.20;19.02;;;5.60;68.80;;;;;;5052159;28;20017;-74
2020/12/27 07:51:20;;;;;;;27.75;16.38;;;6.20;68.80;;;;;;5053062;28;20017;-75
2020/12/27 07:53:51;;;;;;;21.40;14.07;;;6.80;68.70;;;;;;5053245;28;20064;-75
2020/12/27 07:56:22;;;;;;;23.98;14.13;;;7.40;69.10;;;;;;5052979;28;20380;-74
2020/12/27 07:59:01;;;;;;;24.10;15.40;;;8.20;68.60;;;;;;5053012;28;20464;-75
2020/12/27 08:01:35;;;;;;;19.10;12.27;;;9.00;66.90;;;;;;5053309;28;20029;-75
2020/12/27 08:04:03;;;;;;;20.20;12.65;;;9.70;65.70;;;;;;5053321;28;20027;-75
2020/12/27 08:06:32;;;;;;;19.45;11.50;;;10.40;64.20;;;;;;5054336;28;20112;-76
2020/12/27 08:09:12;;;;;;;19.02;11.20;;;11.00;62.10;;;;;;5055659;28;20032;-76
2020/12/27 08:11:45;;;;;;;17.83;11.57;;;11.60;60.00;;;;;;5054531;28;20091;-75
2020/12/27 08:14:13;;;;;;;16.33;10.73;;;12.20;58.70;;;;;;5055517;28;20033;-76
2020/12/27 08:16:41;;;;;;;17.58;10.85;;;12.80;57.30;;;;;;5053189;28;20036;-76
2020/12/27 08:19:11;;;;;;;15.82;10.57;;;13.40;55.70;;;;;;5051623;28;20191;-75
2020/12/27 08:21:39;;;;;;;14.35;9.38;;;13.90;54.50;;;;;;5054948;28;20217;-77
2020/12/27 08:24:07;;;;;;;15.90;9.70;;;14.40;52.90;;;;;;5056977;28;20111;-75
2020/12/27 08:26:37;;;;;;;13.50;9.10;;;15.00;51.60;;;;;;5056940;28;20074;-74
2020/12/27 08:29:11;;;;;;;14.60;10.30;;;15.50;50.10;;;;;;5056473;28;20021;-75
2020/12/27 08:31:37;;;;;;;15.45;10.05;;;15.90;47.60;;;;;;5056387;28;20420;-75
2020/12/27 08:34:08;;;;;;;20.35;12.93;;;16.30;47.80;;;;;;5056330;28;20110;-75
2020/12/27 08:36:35;;;;;;;21.42;11.88;;;16.60;45.60;;;;;;5056313;28;20017;-75
2020/12/27 08:39:24;;;;;;;17.30;10.48;;;17.00;45.20;;;;;;5056431;28;20028;-92
2020/12/27 08:42:30;;;;;;;16.58;10.45;;;17.20;43.40;;;;;;5055293;28;20025;-79
2020/12/27 08:45:02;;;;;;;16.52;10.65;;;17.50;42.20;;;;;;5056916;28;20419;-75
2020/12/27 08:47:46;;;;;;;13.60;10.52;;;17.70;41.80;;;;;;5054810;28;20021;-75
2020/12/27 08:50:25;;;;;;;18.13;12.50;;;18.00;42.10;;;;;;5056671;28;20025;-76
2020/12/27 08:53:07;;;;;;;14.15;10.13;;;18.20;40.50;;;;;;5056041;28;20457;-75
2020/12/27 08:55:33;;;;;;;15.77;10.93;;;18.50;40.30;;;;;;5055077;28;20059;-75
2020/12/27 08:57:59;;;;;;;15.65;10.80;;;18.80;40.60;;;;;;5056085;28;20056;-75
2020/12/27 09:00:35;;;;;;;17.42;11.93;;;19.20;40.10;;;;;;5056296;28;20052;-77
2020/12/27 09:03:03;;;;;;;16.00;12.15;;;19.40;38.40;;;;;;5056089;28;20057;-77
2020/12/27 09:05:30;;;;;;;16.45;11.80;;;19.70;38.40;;;;;;5054417;28;20365;-76
2020/12/27 09:08:27;;;;;;;19.35;11.82;;;19.90;37.80;;;;;;5054478;28;20021;-73
2020/12/27 09:11:02;;;;;;;18.33;13.00;;;20.20;37.20;;;;;;5047015;28;20045;-74
2020/12/27 09:13:34;;;;;;;;;;;20.40;36.30;;;;;;5054723;28;20059;-75
2020/12/27 09:15:59;;;;;;;14.60;11.50;;;20.70;39.00;;;;;;5055416;28;19944;-75
2020/12/27 09:18:30;;;;;;;16.30;12.02;;;21.10;37.40;;;;;;5055540;28;20049;-74
2020/12/27 09:21:08;;;;;;;15.32;11.57;;;21.00;35.60;;;;;;5055811;28;20073;-75
2020/12/27 09:23:36;;;;;;;16.15;11.65;;;21.00;34.70;;;;;;5057614;28;20025;-74
2020/12/27 09:26:16;;;;;;;16.92;11.82;;;21.20;35.00;;;;;;5055936;28;20045;-75
2020/12/27 09:28:44;;;;;;;17.80;12.45;;;21.30;34.00;;;;;;5055586;28;20029;-78
2020/12/27 09:31:12;;;;;;;14.90;10.68;;;21.50;34.30;;;;;;5054261;28;20021;-75
2020/12/27 09:33:44;;;;;;;15.70;11.27;;;21.70;33.80;;;;;;5054888;28;20460;-77
2020/12/27 09:36:11;;;;;;;13.55;9.63;;;21.80;33.20;;;;;;5055232;28;20061;-76
2020/12/27 09:38:47;;;;;;;16.20;12.05;;;22.10;33.10;;;;;;5053882;28;20025;-75
2020/12/27 09:41:25;;;;;;;11.85;10.18;;;22.20;32.00;;;;;;5055348;28;20091;-76
2020/12/27 09:43:58;;;;;;;14.68;11.65;;;22.20;31.80;;;;;;5055454;28;20395;-76
2020/12/27 09:46:42;;;;;;;14.32;11.20;;;22.50;32.10;;;;;;5055791;28;20017;-76
2020/12/27 09:49:16;;;;;;;14.77;10.40;;;22.70;31.60;;;;;;5054612;28;20017;-76
2020/12/27 09:51:42;;;;;;;12.65;10.65;;;22.90;31.50;;;;;;5054944;28;20021;-75
2020/12/27 09:54:08;;;;;;;13.23;9.43;;;23.20;31.80;;;;;;5053568;28;20035;-76
2020/12/27 09:56:42;;;;;;;11.02;8.50;;;23.50;31.30;;;;;;5054636;28;20368;-75
2020/12/27 09:59:08;;;;;;;10.30;8.18;;;23.80;30.30;;;;;;5053667;28;20025;-76
2020/12/27 10:01:33;;;;;;;11.68;9.35;;;24.10;30.70;;;;;;5054548;28;20517;-75
2020/12/27 10:03:59;;;;;;;13.25;10.63;;;24.50;30.10;;;;;;5053890;28;20056;-74
2020/12/27 10:06:25;;;;;;;14.90;11.10;;;24.70;29.90;;;;;;5053348;28;20029;-75
2020/12/27 10:08:51;;;;;;;16.40;10.40;;;25.00;29.60;;;;;;5054344;28;20032;-75
2020/12/27 10:11:16;;;;;;;14.15;10.25;;;25.30;29.40;;;;;;5054260;28;20045;-77
2020/12/27 10:13:42;;;;;;;19.80;11.88;;;25.40;29.20;;;;;;5052845;28;20120;-76
2020/12/27 10:16:08;;;;;;;15.18;9.70;;;25.60;29.00;;;;;;5054126;28;20032;-77
2020/12/27 10:18:34;;;;;;;17.35;12.07;;;25.80;28.70;;;;;;5053048;28;20021;-73
2020/12/27 10:21:00;;;;;;;15.15;10.50;;;25.90;28.40;;;;;;5054014;28;20024;-75
2020/12/27 10:23:25;;;;;;;14.60;9.77;;;25.90;28.40;;;;;;5053335;28;20040;-75
2020/12/27 10:25:51;;;;;;;13.73;10.30;;;26.00;28.30;;;;;;5054219;28;20025;-75
2020/12/27 10:28:17;;;;;;;11.05;9.27;;;26.20;28.30;;;;;;5054376;28;20029;-77
2020/12/27 10:30:43;;;;;;;14.70;11.70;;;26.40;28.20;;;;;;5053471;28;20388;-75
2020/12/27 10:33:12;;;;;;;14.13;9.60;;;26.60;28.10;;;;;;5054206;28;20086;-76
2020/12/27 10:35:38;;;;;;;9.52;8.20;;;26.80;27.80;;;;;;5053260;28;20120;-77
2020/12/27 10:38:03;;;;;;;12.10;8.20;;;26.90;27.50;;;;;;5053952;28;20457;-76
2020/12/27 10:40:31;;;;;;;14.80;9.60;;;27.00;27.40;;;;;;5053777;28;20095;-76
2020/12/27 10:42:57;;;;;;;12.15;9.15;;;27.00;27.10;;;;;;5053661;28;20029;-77
2020/12/27 10:45:23;;;;;;;14.02;10.48;;;26.80;27.20;;;;;;5069306;28;20070;-75
2020/12/27 10:47:49;;;;;;;15.80;10.70;;;27.00;27.20;;;;;;5053819;28;20115;-78
2020/12/27 10:50:15;;;;;;;14.35;10.38;;;27.10;27.10;;;;;;5053616;28;20401;-75
2020/12/27 10:52:41;;;;;;;20.90;12.15;;;27.20;27.00;;;;;;5053275;28;20025;-75
2020/12/27 10:55:06;;;;;;;19.00;11.52;;;27.40;27.00;;;;;;5053623;28;20021;-75
2020/12/27 10:57:43;;;;;;;20.05;11.65;;;27.50;26.90;;;;;;5053726;28;20024;-72
2020/12/27 11:00:12;;;;;;;11.57;7.00;;;27.50;26.40;;;;;;5053750;28;20109;-75
2020/12/27 11:02:38;;;;;;;13.52;9.55;;;27.40;26.20;;;;;;5054229;28;20143;-76
2020/12/27 11:05:05;;;;;;;16.10;10.18;;;27.10;26.30;;;;;;5053585;28;20104;-75
2020/12/27 11:07:31;;;;;;;47.90;23.05;;;26.80;26.10;;;;;;5053394;28;20031;-74
2020/12/27 11:09:56;;;;;;;43.55;23.52;;;26.50;26.20;;;;;;5054100;28;20025;-76
2020/12/27 11:12:23;;;;;;;61.33;28.65;;;26.00;26.20;;;;;;5054323;28;20072;-75
2020/12/27 11:14:49;;;;;;;57.72;29.25;;;25.30;26.20;;;;;;5052447;28;20033;-74
2020/12/27 11:17:17;;;;;;;65.65;32.72;;;24.60;26.50;;;;;;5053523;28;20017;-75
2020/12/27 11:19:44;;;;;;;60.20;30.75;;;23.90;26.90;;;;;;5053437;28;20013;-76
2020/12/27 11:22:10;;;;;;;79.35;38.83;;;23.30;27.20;;;;;;5053790;28;20071;-74
2020/12/27 11:24:36;;;;;;;171.05;78.90;;;22.80;27.60;;;;;;5053787;28;20029;-75
2020/12/27 11:27:02;;;;;;;113.32;53.65;;;22.00;27.80;;;;;;5053458;28;20091;-77
2020/12/27 11:29:27;;;;;;;112.43;52.88;;;21.20;28.30;;;;;;5053057;28;20456;-75
2020/12/27 11:31:55;;;;;;;123.97;55.88;;;20.40;28.90;;;;;;5053964;28;20021;-76
2020/12/27 11:34:21;;;;;;;112.15;54.22;;;19.80;29.50;;;;;;5051940;28;20036;-75
2020/12/27 11:36:49;;;;;;;107.43;49.22;;;19.40;30.00;;;;;;5053456;28;20530;-75
2020/12/27 11:39:15;;;;;;;110.75;53.22;;;19.20;30.20;;;;;;5053468;28;20104;-76
2020/12/27 11:41:41;;;;;;;104.50;51.55;;;19.00;30.50;;;;;;5052831;28;20115;-74
2020/12/27 11:44:06;;;;;;;72.45;37.67;;;18.80;30.80;;;;;;5053616;28;20085;-75
2020/12/27 11:46:33;;;;;;;50.05;27.20;;;18.50;30.80;;;;;;5053097;28;20017;-76
2020/12/27 11:49:00;;;;;;;68.57;34.10;;;18.20;30.90;;;;;;5053422;28;20021;-76
2020/12/27 11:51:25;;;;;;;64.65;32.97;;;17.80;31.20;;;;;;5052105;28;20033;-75
2020/12/27 11:53:52;;;;;;;68.07;35.63;;;17.40;31.50;;;;;;5053006;28;20366;-76
2020/12/27 11:56:18;;;;;;;54.60;29.40;;;16.90;32.00;;;;;;5056436;28;20032;-76
2020/12/27 11:58:44;;;;;;;53.08;28.55;;;16.40;32.60;;;;;;5055193;28;20021;-75
2020/12/27 12:01:11;;;;;;;54.70;27.58;;;16.10;33.30;;;;;;5056138;28;20160;-75
2020/12/27 12:03:37;;;;;;;44.20;23.13;;;15.90;33.80;;;;;;5056617;28;20033;-75
2020/12/27 12:06:03;;;;;;;39.17;21.20;;;16.00;34.30;;;;;;5056411;28;20025;-75
2020/12/27 12:08:28;;;;;;;36.05;20.60;;;16.30;34.40;;;;;;5056965;28;20024;-75
2020/12/27 12:10:54;;;;;;;34.53;18.83;;;16.50;34.30;;;;;;5057236;28;20041;-75
2020/12/27 12:13:20;;;;;;;35.45;19.90;;;16.90;34.20;;;;;;5057795;28;20039;-76
2020/12/27 12:15:45;;;;;;;24.65;14.32;;;17.20;34.20;;;;;;5057776;28;20055;-75
2020/12/27 12:18:11;;;;;;;21.27;14.10;;;17.60;33.90;;;;;;5056198;28;20052;-75
2020/12/27 12:20:43;;;;;;;19.23;12.82;;;17.80;33.40;;;;;;5057196;28;20368;-76
2020/12/27 12:23:09;;;;;;;17.92;11.32;;;18.00;33.10;;;;;;5059437;28;20031;-75
2020/12/27 12:25:35;;;;;;;20.00;12.32;;;18.20;32.80;;;;;;5073234;28;20044;-76
2020/12/27 12:28:01;;;;;;;15.82;10.20;;;18.40;32.60;;;;;;5058854;28;20047;-75
2020/12/27 12:30:27;;;;;;;17.55;12.13;;;18.60;32.30;;;;;;5061702;28;20074;-75
2020/12/27 12:32:53;;;;;;;18.10;12.05;;;18.90;32.20;;;;;;5074486;28;20032;-76
2020/12/27 12:35:18;;;;;;;21.50;13.23;;;19.00;31.90;;;;;;5078251;28;20005;-76
2020/12/27 12:37:44;;;;;;;17.55;9.38;;;19.00;31.90;;;;;;5079248;28;20035;-76
2020/12/27 12:40:10;;;;;;;11.20;7.93;;;19.20;31.70;;;;;;5078715;28;20024;-76
2020/12/27 12:42:36;;;;;;;12.85;9.13;;;19.50;31.60;;;;;;5078828;28;20021;-78
2020/12/27 12:45:05;;;;;;;10.15;7.50;;;19.90;31.30;;;;;;5078923;28;20037;-76